18°C Temp
8°C Dewpoint
52% Humidity
Temperature
27 KM/H
17 MPH
15 KTS
140°
South East

Wind Speed
Clear
Conditions
Pressure 1010.84 (hPa) - 29.85 (in)
Visibility 6.0 (mi) - 9.7 (km)

Current Conditions
ESTA
Location Ängelholm-Helsingborg Airport 25(km)
Metar :ESTA 291050Z 14015KT CAVOK 18/08 Q1011
Wed 29th May 11:50 am

Airport
  Metar Aviation API Data Provided by https://www.checkwx.com/ PHP scripts by weather34.com ©2024